createdAt,value
2023-06-11T00:00:46.274Z,53.75
2023-06-11T00:01:46.246Z,54.08
2023-06-11T00:02:46.313Z,54.28
2023-06-11T00:03:46.404Z,54.28
2023-06-11T00:04:46.402Z,54.38
2023-06-11T00:05:46.222Z,54.58
2023-06-11T00:06:46.190Z,55.32
2023-06-11T00:07:46.192Z,55.01
2023-06-11T00:08:46.168Z,54.71
2023-06-11T00:09:46.195Z,54.89
2023-06-11T00:10:46.147Z,54.38
2023-06-11T00:11:46.118Z,54.38
2023-06-11T00:12:46.120Z,54.68
2023-06-11T00:13:46.128Z,54.68
2023-06-11T00:14:46.139Z,54.68
2023-06-11T00:15:46.115Z,55.19
2023-06-11T00:16:46.150Z,55.11
2023-06-11T00:17:46.129Z,55.82
2023-06-11T00:18:46.108Z,56.05
2023-06-11T00:19:46.038Z,55.85
2023-06-11T00:20:46.038Z,56.25
2023-06-11T00:21:46.031Z,55.94
2023-06-11T00:22:46.001Z,56.25
2023-06-11T00:23:46.064Z,56.25
2023-06-11T00:24:46.003Z,56.45
2023-06-11T00:25:47.341Z,56.78
2023-06-11T00:26:45.968Z,56.98
2023-06-11T00:27:45.951Z,57.21
2023-06-11T00:28:45.966Z,57.62
2023-06-11T00:29:45.920Z,57.72
2023-06-11T00:30:45.917Z,57.52
2023-06-11T00:31:45.950Z,58.05
2023-06-11T00:32:45.931Z,57.85
2023-06-11T00:33:45.899Z,58.15
2023-06-11T00:34:45.873Z,58.25
2023-06-11T00:35:45.852Z,58.25
2023-06-11T00:36:45.849Z,58.86
2023-06-11T00:37:45.863Z,58.89
2023-06-11T00:38:45.835Z,58.58
2023-06-11T00:39:45.796Z,58.56
2023-06-11T00:40:45.788Z,58.69
2023-06-11T00:41:45.800Z,58.86
2023-06-11T00:42:45.838Z,58.56
2023-06-11T00:43:45.781Z,58.65
2023-06-11T00:44:45.765Z,58.76
2023-06-11T00:45:45.794Z,59.27
2023-06-11T00:46:45.747Z,59.29
2023-06-11T00:47:45.821Z,59.80
2023-06-11T00:48:45.718Z,60.23
2023-06-11T00:49:45.710Z,60.03
2023-06-11T00:50:45.675Z,60.03
2023-06-11T00:51:45.681Z,60.33
2023-06-11T00:52:45.692Z,60.53
2023-06-11T00:53:45.654Z,60.86
2023-06-11T00:54:45.647Z,61.07
2023-06-11T00:55:45.611Z,60.86
2023-06-11T00:56:45.641Z,61.17
2023-06-11T00:57:45.596Z,61.17
2023-06-11T00:58:45.647Z,61.07
2023-06-11T00:59:45.696Z,60.97
2023-06-11T01:00:45.594Z,61.17
2023-06-11T01:01:45.590Z,61.17
2023-06-11T01:02:45.596Z,60.97
2023-06-11T01:03:45.549Z,61.17
2023-06-11T01:04:45.614Z,61.17
2023-06-11T01:05:45.635Z,61.47
2023-06-11T01:06:45.525Z,62.01
2023-06-11T01:07:45.473Z,62.11
2023-06-11T01:08:45.468Z,62.41
2023-06-11T01:09:45.463Z,62.21
2023-06-11T01:10:45.501Z,62.41
2023-06-11T01:11:45.462Z,62.82
2023-06-11T01:12:47.760Z,62.41
2023-06-11T01:13:45.407Z,62.62
2023-06-11T01:14:45.425Z,62.92
2023-06-11T01:15:45.442Z,63.12
2023-06-11T01:16:45.389Z,63.23
2023-06-11T01:17:45.439Z,63.96
2023-06-11T01:18:45.370Z,63.86
2023-06-11T01:19:45.352Z,64.98
2023-06-11T01:20:45.379Z,64.61
2023-06-11T01:21:45.333Z,64.47
2023-06-11T01:22:45.310Z,64.27
2023-06-11T01:23:45.302Z,63.43
2023-06-11T01:24:45.301Z,63.73
2023-06-11T01:25:45.315Z,63.83
2023-06-11T01:26:45.288Z,64.24
2023-06-11T01:27:45.267Z,64.34
2023-06-11T01:28:45.247Z,64.04
2023-06-11T01:29:45.276Z,64.24
2023-06-11T01:30:45.219Z,64.37
2023-06-11T01:31:45.365Z,64.14
2023-06-11T01:32:45.200Z,64.54
2023-06-11T01:33:45.172Z,64.14
2023-06-11T01:34:45.219Z,64.47
2023-06-11T01:35:45.155Z,64.34
2023-06-11T01:36:45.159Z,64.37
2023-06-11T01:37:45.138Z,64.75
2023-06-11T01:38:45.112Z,64.58
2023-06-11T01:39:45.151Z,64.78
2023-06-11T01:40:45.109Z,64.98
2023-06-11T01:41:45.081Z,65.08
2023-06-11T01:42:45.080Z,65.48
2023-06-11T01:43:45.101Z,65.79
2023-06-11T01:44:45.089Z,65.31
2023-06-11T01:45:45.050Z,65.82
2023-06-11T01:46:45.074Z,66.02
2023-06-11T01:47:45.072Z,66.43
2023-06-11T01:48:45.031Z,66.56
2023-06-11T01:49:45.054Z,66.46
2023-06-11T01:50:44.993Z,66.86
2023-06-11T01:51:44.967Z,67.38
2023-06-11T01:52:44.957Z,66.66
2023-06-11T01:53:44.989Z,67.07
2023-06-11T01:54:44.950Z,67.20
2023-06-11T01:55:44.910Z,67.61
2023-06-11T01:56:44.917Z,67.61
2023-06-11T01:57:44.941Z,67.61
2023-06-11T01:58:44.928Z,69.03
2023-06-11T01:59:44.901Z,68.83
2023-06-11T02:00:44.876Z,68.35
2023-06-11T02:01:44.900Z,69.47
2023-06-11T02:02:45.008Z,68.86
2023-06-11T02:03:44.911Z,68.96
2023-06-11T02:04:44.825Z,68.32
2023-06-11T02:05:44.819Z,68.12
2023-06-11T02:06:44.858Z,67.78
2023-06-11T02:07:44.879Z,68.01
2023-06-11T02:08:44.775Z,69.34
2023-06-11T02:09:44.757Z,68.93
2023-06-11T02:10:44.785Z,68.93
2023-06-11T02:11:44.761Z,69.67
2023-06-11T02:12:44.767Z,69.57
2023-06-11T02:13:44.735Z,69.78
2023-06-11T02:14:44.705Z,69.78
2023-06-11T02:15:44.699Z,70.18
2023-06-11T02:16:44.726Z,70.59
2023-06-11T02:17:44.683Z,69.57
2023-06-11T02:18:44.675Z,70.28
2023-06-11T02:19:44.688Z,69.34
2023-06-11T02:20:44.655Z,69.23
2023-06-11T02:21:44.665Z,69.64
2023-06-11T02:22:44.655Z,69.13
2023-06-11T02:23:44.653Z,69.64
2023-06-11T02:24:44.662Z,69.43
2023-06-11T02:25:44.593Z,70.18
2023-06-11T02:26:44.608Z,70.79
2023-06-11T02:27:44.588Z,70.59
2023-06-11T02:28:44.550Z,71.23
2023-06-11T02:29:44.550Z,71.23
2023-06-11T02:30:44.573Z,71.67
2023-06-11T02:31:44.620Z,72.08
2023-06-11T02:32:44.581Z,73.13
2023-06-11T02:33:44.494Z,73.84
2023-06-11T02:34:44.496Z,74.69
2023-06-11T02:35:44.527Z,74.69
2023-06-11T02:36:44.447Z,75.43
2023-06-11T02:37:44.446Z,76.39
2023-06-11T02:38:44.479Z,76.28
2023-06-11T02:39:44.447Z,77.24
2023-06-11T02:40:44.450Z,77.68
2023-06-11T02:41:44.420Z,78.09
2023-06-11T02:42:44.408Z,78.91
2023-06-11T02:43:44.401Z,79.11
2023-06-11T02:44:44.419Z,79.35
2023-06-11T02:45:44.453Z,79.45
2023-06-11T02:46:44.393Z,80.37
2023-06-11T02:47:44.360Z,81.63
2023-06-11T02:48:44.327Z,81.94
2023-06-11T02:49:44.356Z,82.14
2023-06-11T02:50:44.309Z,82.39
2023-06-11T02:51:44.288Z,83.00
2023-06-11T02:52:44.264Z,83.30
2023-06-11T02:53:44.254Z,83.71
2023-06-11T02:54:44.269Z,83.51
2023-06-11T02:55:44.243Z,83.81
2023-06-11T02:56:44.262Z,84.53
2023-06-11T02:57:44.238Z,85.24
2023-06-11T02:58:44.257Z,84.98
2023-06-11T02:59:44.242Z,85.18
2023-06-11T03:00:44.220Z,85.28
2023-06-11T03:01:44.186Z,85.49
2023-06-11T03:02:44.232Z,85.73
2023-06-11T03:03:44.248Z,86.65
2023-06-11T03:04:44.149Z,86.96
2023-06-11T03:05:44.130Z,87.88
2023-06-11T03:06:44.107Z,87.26
2023-06-11T03:07:44.109Z,87.77
2023-06-11T03:08:44.134Z,87.51
2023-06-11T03:09:44.091Z,87.00
2023-06-11T03:10:44.074Z,88.23
2023-06-11T03:11:44.078Z,89.86
2023-06-11T03:12:44.050Z,89.35
2023-06-11T03:13:44.079Z,89.04
2023-06-11T03:14:44.053Z,89.90
2023-06-11T03:15:44.047Z,90.21
2023-06-11T03:16:44.004Z,90.82
2023-06-11T03:17:44.002Z,90.62
2023-06-11T03:18:44.008Z,90.72
2023-06-11T03:19:43.980Z,90.21
2023-06-11T03:20:43.945Z,90.41
2023-06-11T03:21:43.951Z,91.33
2023-06-11T03:22:43.961Z,91.64
2023-06-11T03:23:43.992Z,91.54
2023-06-11T03:24:43.897Z,91.64
2023-06-11T03:25:43.916Z,91.89
2023-06-11T03:26:43.872Z,92.40
2023-06-11T03:27:43.910Z,92.10
2023-06-11T03:28:43.877Z,91.89
2023-06-11T03:29:43.853Z,92.40
2023-06-11T03:30:43.837Z,92.40
2023-06-11T03:31:43.832Z,92.66
2023-06-11T03:32:43.931Z,92.66
2023-06-11T03:33:43.804Z,92.77
2023-06-11T03:34:43.791Z,93.48
2023-06-11T03:35:43.795Z,93.38
2023-06-11T03:36:43.807Z,93.18
2023-06-11T03:37:43.794Z,93.07
2023-06-11T03:38:43.745Z,92.87
2023-06-11T03:39:43.808Z,92.97
2023-06-11T03:40:43.733Z,92.97
2023-06-11T03:41:43.793Z,92.52
2023-06-11T03:42:43.713Z,92.21
2023-06-11T03:43:43.705Z,92.42
2023-06-11T03:44:43.688Z,92.72
2023-06-11T03:45:43.684Z,92.62
2023-06-11T03:46:43.770Z,92.27
2023-06-11T03:47:43.738Z,92.37
2023-06-11T03:48:43.649Z,92.68
2023-06-11T03:49:43.631Z,92.23
2023-06-11T03:50:43.600Z,91.92
2023-06-11T03:51:43.631Z,91.57
2023-06-11T03:52:43.571Z,90.41
2023-06-11T03:53:43.554Z,89.20
2023-06-11T03:54:43.555Z,88.75
2023-06-11T03:55:43.580Z,86.47
2023-06-11T03:56:43.561Z,86.08
2023-06-11T03:57:43.503Z,84.78
2023-06-11T03:58:43.515Z,82.37
2023-06-11T03:59:43.506Z,80.36
2023-06-11T04:00:43.537Z,78.46
2023-06-11T04:01:43.481Z,76.67
2023-06-11T04:02:43.587Z,75.92
2023-06-11T04:03:43.570Z,75.28
2023-06-11T04:04:43.505Z,73.93
2023-06-11T04:05:43.461Z,72.85
2023-06-11T04:06:43.446Z,72.21
2023-06-11T04:07:43.403Z,69.95
2023-06-11T04:08:43.411Z,68.84
2023-06-11T04:09:43.443Z,70.02
2023-06-11T04:10:43.429Z,68.27
2023-06-11T04:11:43.388Z,67.91
2023-06-11T04:12:43.338Z,67.47
2023-06-11T04:13:43.358Z,67.44
2023-06-11T04:14:43.359Z,65.50
2023-06-11T04:15:43.330Z,65.56
2023-06-11T04:16:43.386Z,64.23
2023-06-11T04:17:43.416Z,64.90
2023-06-11T04:18:43.289Z,63.36
2023-06-11T04:19:43.313Z,62.96
2023-06-11T04:20:43.260Z,61.70
2023-06-11T04:21:43.258Z,61.33
2023-06-11T04:22:43.229Z,62.00
2023-06-11T04:23:43.240Z,61.00
2023-06-11T04:24:43.254Z,59.86
2023-06-11T04:25:43.224Z,60.24
2023-06-11T04:26:43.182Z,56.20
2023-06-11T04:27:43.190Z,57.10
2023-06-11T04:28:43.208Z,55.40
2023-06-11T04:29:43.193Z,55.27
2023-06-11T04:30:43.139Z,55.74
2023-06-11T04:31:43.247Z,55.85
2023-06-11T04:32:43.176Z,55.94
2023-06-11T04:33:43.157Z,55.92
2023-06-11T04:34:43.380Z,55.59
2023-06-11T04:35:43.109Z,54.67
2023-06-11T04:36:43.077Z,54.47
2023-06-11T04:37:43.060Z,55.84
2023-06-11T04:38:43.086Z,54.71
2023-06-11T04:39:43.035Z,55.21
2023-06-11T04:40:43.028Z,53.36
2023-06-11T04:41:43.029Z,52.07
2023-06-11T04:42:43.010Z,52.17
2023-06-11T04:43:43.039Z,52.84
2023-06-11T04:44:42.990Z,53.14
2023-06-11T04:45:42.997Z,50.95
2023-06-11T04:46:43.021Z,52.27
2023-06-11T04:47:43.017Z,50.20
2023-06-11T04:48:42.987Z,54.24
2023-06-11T04:49:42.947Z,53.17
2023-06-11T04:50:42.917Z,52.59
2023-06-11T04:51:42.912Z,53.69
2023-06-11T04:52:42.919Z,53.79
2023-06-11T04:53:42.888Z,52.92
2023-06-11T04:54:42.895Z,54.57
2023-06-11T04:55:42.873Z,53.39
2023-06-11T04:56:42.844Z,54.17
2023-06-11T04:57:42.878Z,53.39
2023-06-11T04:58:42.821Z,55.43
2023-06-11T04:59:42.820Z,55.80
2023-06-11T05:00:42.802Z,55.07
2023-06-11T05:01:42.868Z,54.20
2023-06-11T05:02:42.825Z,55.00
2023-06-11T05:03:42.771Z,54.39
2023-06-11T05:04:42.760Z,53.59
2023-06-11T05:05:42.837Z,54.95
2023-06-11T05:06:42.772Z,54.95
2023-06-11T05:07:42.745Z,54.95
2023-06-11T05:08:42.691Z,55.88
2023-06-11T05:09:44.473Z,55.88
2023-06-11T05:10:42.699Z,56.05
2023-06-11T05:11:42.720Z,54.82
2023-06-11T05:12:42.668Z,54.93
2023-06-11T05:13:42.660Z,55.43
2023-06-11T05:14:42.667Z,53.69
2023-06-11T05:15:42.675Z,54.74
2023-06-11T05:16:42.751Z,53.77
2023-06-11T05:17:42.693Z,53.12
2023-06-11T05:18:42.638Z,51.92
2023-06-11T05:19:42.603Z,52.37
2023-06-11T05:20:42.621Z,53.07
2023-06-11T05:21:42.555Z,52.87
2023-06-11T05:22:42.553Z,53.59
2023-06-11T05:23:42.644Z,53.80
2023-06-11T05:24:42.569Z,54.30
2023-06-11T05:25:42.554Z,54.00
2023-06-11T05:26:42.514Z,53.77
2023-06-11T05:27:42.508Z,53.67
2023-06-11T05:28:42.517Z,52.87
2023-06-11T05:29:45.773Z,53.80
2023-06-11T05:30:42.494Z,55.30
2023-06-11T05:31:42.492Z,54.35
2023-06-11T05:32:42.530Z,52.99
2023-06-11T05:33:42.429Z,51.72
2023-06-11T05:34:42.468Z,52.94
2023-06-11T05:35:42.428Z,52.69
2023-06-11T05:36:42.392Z,51.87
2023-06-11T05:37:42.401Z,51.42
2023-06-11T05:38:42.373Z,50.20
2023-06-11T05:39:42.399Z,50.52
2023-06-11T05:40:42.353Z,51.04
2023-06-11T05:41:42.355Z,52.17
2023-06-11T05:42:42.341Z,51.87
2023-06-11T05:43:42.360Z,50.92
2023-06-11T05:44:42.361Z,51.27
2023-06-11T05:45:42.334Z,51.82
2023-06-11T05:46:42.467Z,52.44
2023-06-11T05:47:42.359Z,53.39
2023-06-11T05:48:42.321Z,51.77
2023-06-11T05:49:42.251Z,50.74
2023-06-11T05:50:42.202Z,50.15
2023-06-11T05:51:42.214Z,51.27
2023-06-11T05:52:42.190Z,52.82
2023-06-11T05:53:42.247Z,52.82
2023-06-11T05:54:42.197Z,52.19
2023-06-11T05:55:42.208Z,52.17
2023-06-11T05:56:42.187Z,51.57
2023-06-11T05:57:42.186Z,52.14
2023-06-11T05:58:42.159Z,50.65
2023-06-11T05:59:42.135Z,51.92
2023-06-11T06:00:42.091Z,50.82
2023-06-11T06:01:42.093Z,50.60
2023-06-11T06:02:42.154Z,51.67
2023-06-11T06:03:42.300Z,51.87
2023-06-11T06:04:42.134Z,52.74
2023-06-11T06:05:42.078Z,50.10
2023-06-11T06:06:42.115Z,49.75
2023-06-11T06:07:42.080Z,48.85
2023-06-11T06:08:44.610Z,49.93
2023-06-11T06:09:42.036Z,49.38
2023-06-11T06:10:42.009Z,48.76
2023-06-11T06:11:42.032Z,47.89
2023-06-11T06:12:42.013Z,48.11
2023-06-11T06:13:41.972Z,48.55
2023-06-11T06:14:41.962Z,48.91
2023-06-11T06:15:41.945Z,48.80
2023-06-11T06:16:42.021Z,49.08
2023-06-11T06:17:41.979Z,48.31
2023-06-11T06:18:41.930Z,49.10
2023-06-11T06:19:41.889Z,48.33
2023-06-11T06:20:41.919Z,49.33
2023-06-11T06:21:41.910Z,49.63
2023-06-11T06:22:41.869Z,48.50
2023-06-11T06:23:41.951Z,49.03
2023-06-11T06:24:41.857Z,50.43
2023-06-11T06:25:41.899Z,48.73
2023-06-11T06:26:41.938Z,48.93
2023-06-11T06:27:41.830Z,49.70
2023-06-11T06:28:41.796Z,49.60
2023-06-11T06:29:41.812Z,48.58
2023-06-11T06:30:41.804Z,49.28
2023-06-11T06:31:41.912Z,48.88
2023-06-11T06:32:41.800Z,48.88
2023-06-11T06:33:41.783Z,48.74
2023-06-11T06:34:41.730Z,47.02
2023-06-11T06:35:41.759Z,47.74
2023-06-11T06:36:41.708Z,47.82
2023-06-11T06:37:41.747Z,47.89
2023-06-11T06:38:41.737Z,47.44
2023-06-11T06:39:41.761Z,49.83
2023-06-11T06:40:41.713Z,49.95
2023-06-11T06:41:41.664Z,47.84
2023-06-11T06:42:41.677Z,48.04
2023-06-11T06:43:41.636Z,49.58
2023-06-11T06:44:41.682Z,48.79
2023-06-11T06:45:41.621Z,49.21
2023-06-11T06:46:41.628Z,48.91
2023-06-11T06:47:41.737Z,49.48
2023-06-11T06:48:41.751Z,49.26
2023-06-11T06:49:41.611Z,49.46
2023-06-11T06:50:41.610Z,50.13
2023-06-11T06:51:41.557Z,49.90
2023-06-11T06:52:41.541Z,49.53
2023-06-11T06:53:41.574Z,48.66
2023-06-11T06:54:41.569Z,50.93
2023-06-11T06:55:41.529Z,48.59
2023-06-11T06:56:41.515Z,48.29
2023-06-11T06:57:41.509Z,47.97
2023-06-11T06:58:41.511Z,47.17
2023-06-11T06:59:41.479Z,47.65
2023-06-11T07:00:41.458Z,46.78
2023-06-11T07:01:41.485Z,47.89
2023-06-11T07:02:41.461Z,49.23
2023-06-11T07:03:41.485Z,48.61
2023-06-11T07:04:41.452Z,48.91
2023-06-11T07:05:41.427Z,50.40
2023-06-11T07:06:41.397Z,46.76
2023-06-11T07:07:43.566Z,49.21
2023-06-11T07:08:41.401Z,48.00
2023-06-11T07:09:41.372Z,47.55
2023-06-11T07:10:41.355Z,48.44
2023-06-11T07:11:41.359Z,47.16
2023-06-11T07:12:41.399Z,47.49
2023-06-11T07:13:41.328Z,46.53
2023-06-11T07:14:41.288Z,46.69
2023-06-11T07:15:41.326Z,47.96
2023-06-11T07:16:41.348Z,47.61
2023-06-11T07:17:41.352Z,48.02
2023-06-11T07:18:41.269Z,47.55
2023-06-11T07:19:41.290Z,50.68
2023-06-11T07:20:41.274Z,47.61
2023-06-11T07:21:41.289Z,47.41
2023-06-11T07:22:41.239Z,46.30
2023-06-11T07:23:41.265Z,49.62
2023-06-11T07:24:41.228Z,46.62
2023-06-11T07:25:41.186Z,47.28
2023-06-11T07:26:41.223Z,48.85
2023-06-11T07:27:41.167Z,47.91
2023-06-11T07:28:41.153Z,45.63
2023-06-11T07:29:41.158Z,47.36
2023-06-11T07:30:41.133Z,48.20
2023-06-11T07:31:41.217Z,48.08
2023-06-11T07:32:41.148Z,49.46
2023-06-11T07:33:41.095Z,47.52
2023-06-11T07:34:41.106Z,46.97
2023-06-11T07:35:41.055Z,47.49
2023-06-11T07:36:41.077Z,46.15
2023-06-11T07:37:41.014Z,47.77
2023-06-11T07:38:41.053Z,44.46
2023-06-11T07:39:41.013Z,44.78
2023-06-11T07:40:41.046Z,43.59
2023-06-11T07:41:41.063Z,45.12
2023-06-11T07:42:40.994Z,47.38
2023-06-11T07:43:40.966Z,49.56
2023-06-11T07:44:40.967Z,52.49
2023-06-11T07:45:40.977Z,54.83
2023-06-11T07:46:41.034Z,54.53
2023-06-11T07:47:40.945Z,56.43
2023-06-11T07:48:40.911Z,53.69
2023-06-11T07:49:40.881Z,51.70
2023-06-11T07:50:40.942Z,51.54
2023-06-11T07:51:40.889Z,50.95
2023-06-11T07:52:40.879Z,50.70
2023-06-11T07:53:40.856Z,52.04
2023-06-11T07:54:40.889Z,49.81
2023-06-11T07:55:40.870Z,50.43
2023-06-11T07:56:40.880Z,50.98
2023-06-11T07:57:40.805Z,49.21
2023-06-11T07:58:40.823Z,50.33
2023-06-11T07:59:40.828Z,49.51
2023-06-11T08:00:40.798Z,49.24
2023-06-11T08:01:40.803Z,47.53
2023-06-11T08:02:40.854Z,47.66
2023-06-11T08:03:40.796Z,47.44
2023-06-11T08:04:40.778Z,47.24
2023-06-11T08:05:40.773Z,49.12
2023-06-11T08:06:40.726Z,49.34
2023-06-11T08:07:40.717Z,48.23
2023-06-11T08:08:40.797Z,47.39
2023-06-11T08:09:40.672Z,48.24
2023-06-11T08:10:40.706Z,48.28
2023-06-11T08:11:40.650Z,48.26
2023-06-11T08:12:40.728Z,48.63
2023-06-11T08:13:40.679Z,48.65
2023-06-11T08:14:40.648Z,50.68
2023-06-11T08:15:40.607Z,50.93
2023-06-11T08:16:40.634Z,50.93
2023-06-11T08:17:40.696Z,51.99
2023-06-11T08:18:40.627Z,49.25
2023-06-11T08:19:40.582Z,46.48
2023-06-11T08:20:40.629Z,46.66
2023-06-11T08:21:40.546Z,46.76
2023-06-11T08:22:40.607Z,44.76
2023-06-11T08:23:40.629Z,45.32
2023-06-11T08:24:40.528Z,47.85
2023-06-11T08:25:40.516Z,45.89
2023-06-11T08:26:40.543Z,47.47
2023-06-11T08:27:40.536Z,49.13
2023-06-11T08:28:40.470Z,48.18
2023-06-11T08:29:40.542Z,48.66
2023-06-11T08:30:40.452Z,46.69
2023-06-11T08:31:40.530Z,46.64
2023-06-11T08:32:40.484Z,44.87
2023-06-11T08:33:40.466Z,45.24
2023-06-11T08:34:40.440Z,45.51
2023-06-11T08:35:40.405Z,44.82
2023-06-11T08:36:40.467Z,45.48
2023-06-11T08:37:40.384Z,46.76
2023-06-11T08:38:40.394Z,47.25
2023-06-11T08:39:40.359Z,44.74
2023-06-11T08:40:40.417Z,44.11
2023-06-11T08:41:40.369Z,44.73
2023-06-11T08:42:40.342Z,42.24
2023-06-11T08:43:40.355Z,43.50
2023-06-11T08:44:40.326Z,43.48
2023-06-11T08:45:40.359Z,45.27
2023-06-11T08:46:40.389Z,45.27
2023-06-11T08:47:40.332Z,46.07
2023-06-11T08:48:40.274Z,47.97
2023-06-11T08:49:40.276Z,48.07
2023-06-11T08:50:40.319Z,46.26
2023-06-11T08:51:40.258Z,46.00
2023-06-11T08:52:40.268Z,47.16
2023-06-11T08:53:40.248Z,46.88
2023-06-11T08:54:40.205Z,46.51
2023-06-11T08:55:40.202Z,47.20
2023-06-11T08:56:40.173Z,49.87
2023-06-11T08:57:40.176Z,45.67
2023-06-11T08:58:40.154Z,47.85
2023-06-11T08:59:40.191Z,44.26
2023-06-11T09:00:40.191Z,44.64
2023-06-11T09:01:40.201Z,43.80
2023-06-11T09:02:40.172Z,44.42
2023-06-11T09:03:40.171Z,44.07
2023-06-11T09:04:40.163Z,45.16
2023-06-11T09:05:40.113Z,47.00
2023-06-11T09:06:40.086Z,47.64
2023-06-11T09:07:40.046Z,47.81
2023-06-11T09:08:40.075Z,47.67
2023-06-11T09:09:40.085Z,46.78
2023-06-11T09:10:40.039Z,48.68
2023-06-11T09:11:40.049Z,46.61
2023-06-11T09:12:40.050Z,50.19
2023-06-11T09:13:40.049Z,44.82
2023-06-11T09:14:40.045Z,45.34
2023-06-11T09:15:39.955Z,46.17
2023-06-11T09:16:40.017Z,46.81
2023-06-11T09:17:39.995Z,48.24
2023-06-11T09:18:39.996Z,46.12
2023-06-11T09:19:39.933Z,46.15
2023-06-11T09:20:39.957Z,44.60
2023-06-11T09:21:39.909Z,45.93
2023-06-11T09:22:39.927Z,45.12
2023-06-11T09:23:40.011Z,44.72
2023-06-11T09:24:39.914Z,47.18
2023-06-11T09:25:39.889Z,47.35
2023-06-11T09:26:39.931Z,50.76
2023-06-11T09:27:39.931Z,45.72
2023-06-11T09:28:39.940Z,42.29
2023-06-11T09:29:39.849Z,41.61
2023-06-11T09:30:39.837Z,42.55
2023-06-11T09:31:39.860Z,43.48
2023-06-11T09:32:39.918Z,43.99
2023-06-11T09:33:39.992Z,44.60
2023-06-11T09:34:39.827Z,45.86
2023-06-11T09:35:39.759Z,45.55
2023-06-11T09:36:39.781Z,42.84
2023-06-11T09:37:39.809Z,43.27
2023-06-11T09:38:39.745Z,43.41
2023-06-11T09:39:39.753Z,43.33
2023-06-11T09:40:39.755Z,44.98
2023-06-11T09:41:39.717Z,44.33
2023-06-11T09:42:39.765Z,45.09
2023-06-11T09:43:39.698Z,42.94
2023-06-11T09:44:39.676Z,42.47
2023-06-11T09:45:39.767Z,41.84
2023-06-11T09:46:39.681Z,42.18
2023-06-11T09:47:39.679Z,44.58
2023-06-11T09:48:39.646Z,45.41
2023-06-11T09:49:39.648Z,45.74
2023-06-11T09:50:39.619Z,43.18
2023-06-11T09:51:39.680Z,43.40
2023-06-11T09:52:39.606Z,44.45
2023-06-11T09:53:39.636Z,45.38
2023-06-11T09:54:39.571Z,47.69
2023-06-11T09:55:39.578Z,48.26
2023-06-11T09:56:39.600Z,49.89
2023-06-11T09:57:39.522Z,49.40
2023-06-11T09:58:39.566Z,49.69
2023-06-11T09:59:39.533Z,50.98
2023-06-11T10:00:39.530Z,49.62
2023-06-11T10:01:39.645Z,50.23
2023-06-11T10:02:39.578Z,50.56
2023-06-11T10:03:39.514Z,50.16
2023-06-11T10:04:39.466Z,51.32
2023-06-11T10:05:39.520Z,52.24
2023-06-11T10:06:39.503Z,51.23
2023-06-11T10:07:39.455Z,50.60
2023-06-11T10:08:39.444Z,49.42
2023-06-11T10:09:39.438Z,44.22
2023-06-11T10:10:39.435Z,43.19
2023-06-11T10:11:39.410Z,43.07
2023-06-11T10:12:39.407Z,43.05
2023-06-11T10:13:39.379Z,45.82
2023-06-11T10:14:39.389Z,45.79
2023-06-11T10:15:39.411Z,44.22
2023-06-11T10:16:39.480Z,42.16
2023-06-11T10:17:40.886Z,42.38
2023-06-11T10:18:39.345Z,42.68
2023-06-11T10:19:39.361Z,45.73
2023-06-11T10:20:39.368Z,46.30
2023-06-11T10:21:39.325Z,44.43
2023-06-11T10:22:39.274Z,43.59
2023-06-11T10:23:39.329Z,43.78
2023-06-11T10:24:39.316Z,41.96
2023-06-11T10:25:39.305Z,41.14
2023-06-11T10:26:39.299Z,40.25
2023-06-11T10:27:39.253Z,38.66
2023-06-11T10:28:39.210Z,39.44
2023-06-11T10:29:39.245Z,38.95
2023-06-11T10:30:39.240Z,37.59
2023-06-11T10:31:39.210Z,40.27
2023-06-11T10:32:39.181Z,41.02
2023-06-11T10:33:39.268Z,43.74
2023-06-11T10:34:39.419Z,43.69
2023-06-11T10:35:39.198Z,45.12
2023-06-11T10:36:39.145Z,46.45
2023-06-11T10:37:39.139Z,44.92
2023-06-11T10:38:39.175Z,44.24
2023-06-11T10:39:39.131Z,43.90
2023-06-11T10:40:39.132Z,44.72
2023-06-11T10:41:39.114Z,41.63
2023-06-11T10:42:39.134Z,41.93
2023-06-11T10:43:39.121Z,39.95
2023-06-11T10:44:39.072Z,42.12
2023-06-11T10:45:39.043Z,41.57
2023-06-11T10:46:39.158Z,41.86
2023-06-11T10:47:39.065Z,42.28
2023-06-11T10:48:39.096Z,42.82
2023-06-11T10:49:39.026Z,42.79
2023-06-11T10:50:39.019Z,43.74
2023-06-11T10:51:40.574Z,40.39
2023-06-11T10:52:39.005Z,40.41
2023-06-11T10:53:39.019Z,41.85
2023-06-11T10:54:38.962Z,39.62
2023-06-11T10:55:38.929Z,40.29
2023-06-11T10:56:38.937Z,39.31
2023-06-11T10:57:38.973Z,41.71
2023-06-11T10:58:38.924Z,40.43
2023-06-11T10:59:38.914Z,41.56
2023-06-11T11:00:38.923Z,40.05
2023-06-11T11:01:39.018Z,40.37
2023-06-11T11:02:38.938Z,41.96
2023-06-11T11:03:39.013Z,41.24
2023-06-11T11:04:38.871Z,43.57
2023-06-11T11:05:38.843Z,41.47
2023-06-11T11:06:38.871Z,41.03
2023-06-11T11:07:38.810Z,38.66
2023-06-11T11:08:38.864Z,39.72
2023-06-11T11:09:38.810Z,39.78
2023-06-11T11:10:38.862Z,39.86
2023-06-11T11:11:38.830Z,39.86
2023-06-11T11:12:38.785Z,39.32
2023-06-11T11:13:38.741Z,37.84
2023-06-11T11:14:38.766Z,37.92
2023-06-11T11:15:38.791Z,39.11
2023-06-11T11:16:41.264Z,38.44
2023-06-11T11:17:38.840Z,40.16
2023-06-11T11:18:38.743Z,40.41
2023-06-11T11:19:38.695Z,38.54
2023-06-11T11:20:38.764Z,39.01
2023-06-11T11:21:41.035Z,37.93
2023-06-11T11:22:38.687Z,39.66
2023-06-11T11:23:38.700Z,39.17
2023-06-11T11:24:40.721Z,38.56
2023-06-11T11:25:38.674Z,39.48
2023-06-11T11:26:38.643Z,40.37
2023-06-11T11:27:38.620Z,42.30
2023-06-11T11:28:38.625Z,42.52
2023-06-11T11:29:38.672Z,42.76
2023-06-11T11:30:38.606Z,43.08
2023-06-11T11:31:38.625Z,41.47
2023-06-11T11:32:38.623Z,41.02
2023-06-11T11:33:38.573Z,40.45
2023-06-11T11:34:38.598Z,39.79
2023-06-11T11:35:38.572Z,38.36
2023-06-11T11:36:38.578Z,38.56
2023-06-11T11:37:38.514Z,38.93
2023-06-11T11:38:38.558Z,37.03
2023-06-11T11:39:38.559Z,37.54
2023-06-11T11:40:38.501Z,37.63
2023-06-11T11:41:38.493Z,36.16
2023-06-11T11:42:38.475Z,38.11
2023-06-11T11:43:39.277Z,37.99
2023-06-11T11:44:38.544Z,36.01
2023-06-11T11:45:38.440Z,34.05
2023-06-11T11:46:38.459Z,33.65
2023-06-11T11:47:38.464Z,35.11
2023-06-11T11:48:38.458Z,34.01
2023-06-11T11:49:38.445Z,34.49
2023-06-11T11:50:38.389Z,33.28
2023-06-11T11:51:38.416Z,36.80
2023-06-11T11:52:38.433Z,34.59
2023-06-11T11:53:38.402Z,35.36
2023-06-11T11:54:38.353Z,34.59
2023-06-11T11:55:51.765Z,37.05
2023-06-11T11:56:39.342Z,35.85
2023-06-11T11:57:38.383Z,35.47
2023-06-11T11:58:38.369Z,36.05
2023-06-11T11:59:38.315Z,34.87
2023-06-11T12:00:38.333Z,37.56
2023-06-11T12:01:38.346Z,38.64
2023-06-11T12:02:38.381Z,37.17
2023-06-11T12:03:38.797Z,35.78
2023-06-11T12:04:38.282Z,34.81
2023-06-11T12:05:38.299Z,35.91
2023-06-11T12:06:38.250Z,33.38
2023-06-11T12:07:38.263Z,34.75
2023-06-11T12:08:38.244Z,35.29
2023-06-11T12:09:38.240Z,37.63
2023-06-11T12:10:38.203Z,33.85
2023-06-11T12:11:45.753Z,34.36
2023-06-11T12:12:39.219Z,35.06
2023-06-11T12:13:38.522Z,36.63
2023-06-11T12:14:38.163Z,38.23
2023-06-11T12:15:38.148Z,36.91
2023-06-11T12:16:38.205Z,37.50
2023-06-11T12:17:38.179Z,37.68
2023-06-11T12:18:38.100Z,39.80
2023-06-11T12:19:38.127Z,35.13
2023-06-11T12:20:38.109Z,36.21
2023-06-11T12:21:38.139Z,36.91
2023-06-11T12:22:38.415Z,37.03
2023-06-11T12:23:38.112Z,39.47
2023-06-11T12:24:38.193Z,37.76
2023-06-11T12:25:38.094Z,36.86
2023-06-11T12:26:38.089Z,34.98
2023-06-11T12:27:38.059Z,34.03
2023-06-11T12:28:38.090Z,36.34
2023-06-11T12:29:38.062Z,34.99
2023-06-11T12:30:38.036Z,36.47
2023-06-11T12:31:38.106Z,36.87
2023-06-11T12:32:37.991Z,36.77
2023-06-11T12:33:37.976Z,36.61
2023-06-11T12:34:37.973Z,36.67
2023-06-11T12:35:38.013Z,35.67
2023-06-11T12:36:40.248Z,35.77
2023-06-11T12:37:37.926Z,35.51
2023-06-11T12:38:40.322Z,35.43
2023-06-11T12:39:37.893Z,37.14
2023-06-11T12:40:37.939Z,37.02
2023-06-11T12:41:37.878Z,38.58
2023-06-11T12:42:37.885Z,37.79
2023-06-11T12:43:37.871Z,36.30
2023-06-11T12:44:37.927Z,36.67
2023-06-11T12:45:37.884Z,37.34
2023-06-11T12:46:37.961Z,35.75
2023-06-11T12:47:37.850Z,36.93
2023-06-11T12:48:37.820Z,35.44
2023-06-11T12:49:37.874Z,34.92
2023-06-11T12:50:37.824Z,34.30
2023-06-11T12:51:37.769Z,34.52
2023-06-11T12:52:37.774Z,36.88